Latest Weather Observations for Ballera

IDQ60801

Issued at 5:51 pm EST Sunday 15 September 2019 (issued every 10 minutes, with the page automatically refreshed every 10 minutes)

About weather observations | Map of weather stations | Latest weather observations for QLD | Other Formats
Station Details ID: 045009 Name: BALLERA GAS FIELD Lat: -27.40 Lon: 141.81 Height: 114.5 m
Data from the previous 72 hours. | See also: Recent months at Ballera
Date/Time
EST
Temp
°C
App
Temp
°C
Dew
Point
°C
Rel
Hum
%
Delta-T
°C
Wind Press
QNH
hPa
Press
MSL
hPa
Rain since
9am
mm
Dir  Spd
km/h
Gust
km/h
Spd
kts
Gust
kts
15/05:30pm 31.2 26.2 -12.9 5 17.1 NW 9 13 5 7 1018.0 1017.7 0.0
15/05:00pm 31.0 26.6 -13.0 5 17.0 ENE 6 9 3 5 1017.9 1017.6 0.0
15/04:30pm 31.5 26.9 -12.6 5 17.3 NW 7 13 4 7 1018.0 1017.7 0.0
15/04:00pm 31.3 26.3 -12.8 5 17.1 NNE 9 17 5 9 1018.0 1017.7 0.0
15/03:30pm 31.5 25.4 -12.6 5 17.3 NE 15 24 8 13 1018.2 1017.9 0.0
15/03:00pm 31.0 25.4 -10.7 6 16.7 NE 13 26 7 14 1018.3 1018.0 0.0
15/02:30pm 30.9 24.9 -10.8 6 16.7 NNE 15 24 8 13 1018.5 1018.2 0.0
15/02:00pm 30.5 24.9 -11.1 6 16.5 N 13 24 7 13 1019.0 1018.7 0.0
15/01:30pm 30.1 24.1 -11.4 6 16.4 NNE 15 22 8 12 1019.4 1019.1 0.0
15/01:00pm 30.4 23.6 -11.2 6 16.5 NE 19 28 10 15 1020.0 1019.7 0.0
15/12:30pm 30.2 23.8 -11.3 6 16.4 NNE 17 28 9 15 1020.4 1020.1 0.0
15/12:00pm 30.0 22.8 -9.5 7 16.0 NE 22 30 12 16 1021.1 1020.7 0.0
15/11:30am 28.8 21.9 -10.4 7 15.5 NE 20 28 11 15 1021.7 1021.3 0.0
15/11:00am 28.7 21.2 -8.8 8 15.2 NE 24 32 13 17 1022.1 1021.7 0.0
15/10:30am 26.5 19.8 -7.6 10 13.9 NE 20 24 11 13 1022.8 1022.4 0.0
15/10:00am 24.9 18.2 -7.5 11 13.0 NE 20 24 11 13 1023.3 1023.0 0.0
15/09:30am 23.4 17.1 -5.6 14 11.9 ENE 19 24 10 13 1023.5 1023.2 0.0
15/09:00am 21.6 15.7 -6.1 15 11.0 E 17 20 9 11 1023.6 1023.3 0.0
15/08:30am 19.4 14.6 -6.2 17 10.0 SE 11 13 6 7 1023.8 1023.5 0.0
15/08:00am 17.6 12.5 -5.6 20 8.9 SE 13 17 7 9 1023.7 1023.4 0.0
15/07:30am 15.7 10.1 -5.9 22 8.1 SE 15 17 8 9 1023.0 1022.6 0.0
15/07:00am 13.9 8.7 -6.3 24 7.3 SE 13 15 7 8 1022.3 1021.9 0.0
15/06:30am 13.2 8.0 -5.9 26 7.0 SE 13 15 7 8 1021.8 1021.4 0.0
15/06:00am 13.2 8.0 -5.9 26 7.0 SE 13 15 7 8 1021.4 1021.0 0.0
15/05:30am 13.8 7.9 -5.9 25 7.3 SE 17 17 9 9 1021.3 1020.9 0.0
15/05:00am 13.9 8.0 -5.8 25 7.3 SE 17 17 9 9 1021.2 1020.8 0.0
15/04:30am 14.3 8.8 -5.4 25 7.4 SE 15 17 8 9 1021.0 1020.6 0.0
15/04:00am 15.1 8.8 -5.9 23 7.8 SE 19 20 10 11 1020.9 1020.5 0.0
15/03:30am 15.6 9.7 -5.4 23 8.0 SE 17 19 9 10 1021.0 1020.6 0.0
15/03:00am 15.2 9.3 -5.8 23 7.8 SE 17 19 9 10 1021.3 1020.9 0.0
15/02:30am 16.2 10.4 -4.9 23 8.2 SE 17 17 9 9 1021.6 1021.2 0.0
15/02:00am 16.9 10.7 -4.9 22 8.5 SE 19 20 10 11 1021.8 1021.4 0.0
15/01:30am 17.4 12.0 -4.5 22 8.7 SE 15 17 8 9 1022.0 1021.6 0.0
15/01:00am 17.8 12.7 -4.8 21 8.9 SSE 13 15 7 8 1022.2 1021.8 0.0
15/12:30am 18.0 13.0 -4.6 21 9.0 SSE 13 17 7 9 1022.2 1021.8 0.0
15/12:00am 18.6 13.2 -4.8 20 9.3 SSE 15 19 8 10 1022.3 1021.9 0.0
 
Date/Time
EST
Temp
°C
App
Temp
°C
Dew
Point
°C
Rel
Hum
%
Delta-T
°C
Wind Press
QNH
hPa
Press
MSL
hPa
Rain since
9am
mm
Dir  Spd
km/h
Gust
km/h
Spd
kts
Gust
kts
14/11:30pm 18.9 13.1 -4.5 20 9.4 SSE 17 19 9 10 1022.5 1022.1 0.0
14/11:00pm 19.9 14.1 -5.1 18 10.0 SSE 17 20 9 11 1022.3 1021.9 0.0
14/10:30pm 20.5 14.3 -4.6 18 10.2 SSE 19 22 10 12 1022.5 1022.1 0.0
14/10:00pm 21.1 14.7 -4.9 17 10.5 SSE 20 22 11 12 1022.7 1022.3 0.0
14/09:30pm 21.2 14.8 -4.8 17 10.6 SSE 20 22 11 12 1022.8 1022.4 0.0
14/09:00pm 22.1 15.7 -4.9 16 11.0 SSE 20 22 11 12 1022.8 1022.4 0.0
14/08:30pm 22.5 16.2 -5.4 15 11.4 SSE 19 20 10 11 1022.6 1022.2 0.0
14/08:00pm 23.4 17.1 -5.6 14 11.8 SSE 19 20 10 11 1022.5 1022.1 0.0
14/07:30pm 24.2 18.2 -7.0 12 12.6 SSE 17 19 9 10 1022.2 1021.8 0.0
14/07:00pm 25.0 19.3 -7.5 11 13.0 SSE 15 17 8 9 1021.9 1021.5 0.0
14/06:30pm 26.6 20.1 -7.5 10 13.9 SE 19 22 10 12 1021.8 1021.4 0.0
14/06:00pm 27.7 21.2 -8.0 9 14.5 SE 19 24 10 13 1021.6 1021.2 0.0
14/05:30pm 28.4 21.9 -7.5 9 14.9 SE 19 28 10 15 1021.5 1021.1 0.0
14/05:00pm 28.5 21.7 -8.9 8 15.1 SE 20 26 11 14 1021.4 1021.0 0.0
14/04:30pm 28.6 21.8 -8.8 8 15.2 SE 20 30 11 16 1021.3 1020.9 0.0
14/04:00pm 28.8 23.1 -7.2 9 15.0 SE 15 24 8 13 1021.3 1020.9 0.0
14/03:30pm 29.2 22.5 -8.4 8 15.5 SSE 20 33 11 18 1021.5 1021.1 0.0
14/03:00pm 29.2 23.6 -6.9 9 15.2 ESE 15 22 8 12 1021.9 1021.5 0.0
14/02:30pm 28.5 22.2 -6.0 10 14.7 SE 19 28 10 15 1022.3 1021.9 0.0
14/02:00pm 28.2 21.8 -5.0 11 14.3 SE 20 28 11 15 1022.7 1022.3 0.0
14/01:30pm 28.4 22.7 -3.7 12 14.3 SE 17 32 9 17 1023.1 1022.7 0.0
14/01:00pm 27.4 20.5 -2.4 14 13.4 SE 24 32 13 17 1023.6 1023.3 0.0
14/12:30pm 27.2 21.6 -2.6 14 13.4 SE 17 26 9 14 1024.0 1023.7 0.0
14/12:00pm 27.1 21.4 -0.9 16 12.9 ESE 19 30 10 16 1024.4 1024.1 0.0
14/11:30am 26.8 21.0 -0.3 17 12.6 ESE 20 28 11 15 1025.0 1024.7 0.0
14/11:00am 26.0 20.1 -0.9 17 12.3 ESE 20 30 11 16 1025.4 1025.1 0.0
14/10:30am 25.1 19.2 -0.9 18 11.8 E 20 28 11 15 1025.4 1025.1 0.0
14/10:00am 24.5 18.4 0.1 20 11.2 ESE 22 28 12 15 1025.7 1025.4 0.0
14/09:30am 22.5 15.8 -0.9 21 10.4 ESE 24 35 13 19 1025.8 1025.5 0.0
14/09:00am 21.0 14.3 -0.9 23 9.6 ESE 24 32 13 17 1025.7 1025.4 0.0
14/08:30am 19.1 12.6 -2.5 23 9.0 SE 22 30 12 16 1025.8 1025.5 0.0
14/08:00am 17.7 11.6 -2.5 25 8.3 SE 20 28 11 15 1025.4 1025.1 0.0
14/07:30am 16.2 10.2 -3.3 26 7.8 SE 19 22 10 12 1025.0 1024.7 0.0
14/07:00am 14.8 8.7 -3.5 28 7.1 SE 19 20 10 11 1024.6 1024.3 0.0
14/06:30am 14.0 7.9 -4.2 28 7.0 SE 19 20 10 11 1024.4 1024.1 0.0
14/06:00am 14.1 7.9 -4.6 27 7.1 SE 19 20 10 11 1024.0 1023.7 0.0
14/05:30am 15.1 8.9 -4.8 25 7.6 SE 19 22 10 12 1023.7 1023.4 0.0
14/05:00am 15.1 9.6 -5.3 24 7.7 SE 15 17 8 9 1023.2 1022.8 0.0
14/04:30am 15.9 9.6 -5.8 22 8.2 SSE 19 22 10 12 1022.9 1022.5 0.0
14/04:00am 16.2 10.3 -6.1 21 8.4 SSE 17 22 9 12 1022.8 1022.4 0.0
14/03:30am 16.7 11.5 -6.3 20 8.7 SE 13 17 7 9 1022.6 1022.2 0.0
14/03:00am 17.1 11.5 -6.7 19 8.9 SE 15 19 8 10 1022.7 1022.3 0.0
14/02:30am 17.2 11.5 -7.3 18 9.1 SE 15 17 8 9 1022.9 1022.5 0.0
14/02:00am 17.7 12.0 -7.6 17 9.4 SE 15 17 8 9 1023.1 1022.7 0.0
14/01:30am 18.1 12.4 -7.3 17 9.5 SE 15 17 8 9 1023.2 1022.8 0.0
14/01:00am 18.5 12.4 -7.8 16 9.8 SE 17 19 9 10 1023.3 1023.0 0.0
14/12:30am 19.6 13.9 -7.7 15 10.3 SE 15 17 8 9 1023.5 1023.2 0.0
14/12:00am 20.3 14.6 -8.0 14 10.7 SSE 15 17 8 9 1023.6 1023.3 0.0
 
Date/Time
EST
Temp
°C
App
Temp
°C
Dew
Point
°C
Rel
Hum
%
Delta-T
°C
Wind Press
QNH
hPa
Press
MSL
hPa
Rain since
9am
mm
Dir  Spd
km/h
Gust
km/h
Spd
kts
Gust
kts
13/11:30pm 20.4 15.0 -8.9 13 10.9 SSE 13 15 7 8 1023.7 1023.4 0.0
13/11:00pm 20.0 14.2 -9.2 13 10.7 SSE 15 17 8 9 1023.8 1023.5 0.0
13/10:30pm 20.7 14.4 -9.7 12 11.2 SSE 17 19 9 10 1023.7 1023.4 0.0
13/10:00pm 21.3 14.6 -10.3 11 11.5 SSE 19 20 10 11 1023.7 1023.4 0.0
13/09:30pm 21.6 14.8 -11.3 10 11.9 S 19 20 10 11 1023.8 1023.5 0.0
13/09:00pm 22.6 16.2 -11.8 9 12.4 S 17 19 9 10 1023.5 1023.2 0.0
13/08:30pm 25.2 20.0 -11.4 8 13.7 SSE 11 13 6 7 1023.2 1022.8 0.0
13/08:00pm 26.0 21.6 -10.8 8 14.0 SSE 7 9 4 5 1022.8 1022.4 0.0
13/07:30pm 26.1 21.3 -10.7 8 14.1 SSE 9 9 5 5 1022.5 1022.1 0.0
13/07:00pm 26.4 21.2 -10.5 8 14.2 SSE 11 13 6 7 1022.3 1021.9 0.0
13/06:30pm 27.7 21.7 -11.2 7 15.0 SSE 15 17 8 9 1022.2 1021.8 0.0
13/06:00pm 29.2 22.9 -10.1 7 15.6 SSE 17 24 9 13 1022.1 1021.7 0.0
13/05:30pm 29.9 23.5 -11.5 6 16.3 S 17 28 9 15 1021.9 1021.5 0.0
13/05:00pm 30.5 24.1 -11.1 6 16.5 S 17 24 9 13 1021.8 1021.4 0.0
13/04:30pm 31.1 24.8 -10.7 6 16.8 SSE 17 32 9 17 1021.6 1021.2 0.0
13/04:00pm 30.7 24.4 -10.9 6 16.6 SSE 17 28 9 15 1021.7 1021.3 0.0
13/03:30pm 30.3 24.8 -9.3 7 16.2 SSE 13 20 7 11 1021.8 1021.4 0.0
13/03:00pm 30.0 24.4 -11.4 6 16.2 SSE 13 24 7 13 1022.1 1021.7 0.0
13/02:30pm 30.3 24.7 -11.2 6 16.4 SSE 13 20 7 11 1022.3 1021.9 0.0
13/02:00pm 30.1 24.9 -11.4 6 16.3 SSW 11 22 6 12 1022.9 1022.5 0.0
13/01:30pm 29.6 24.3 -11.7 6 16.1 SSE 11 20 6 11 1023.3 1023.0 0.0
13/01:00pm 28.4 22.4 -10.7 7 15.3 SSE 15 20 8 11 1023.8 1023.5 0.0
13/12:30pm 28.5 23.7 -10.6 7 15.4 SE 9 19 5 10 1024.1 1023.8 0.0
13/12:00pm 27.8 22.2 -11.1 7 15.0 SSE 13 19 7 10 1024.7 1024.4 0.0
13/11:30am 26.8 21.0 -13.7 6 14.8 S 13 20 7 11 1025.2 1024.9 0.0
13/11:00am 26.7 21.7 -13.8 6 14.7 SSW 9 22 5 12 1025.3 1025.0 0.0
13/10:30am 24.9 20.2 -15.1 6 14.0 SSW 7 13 4 7 1025.7 1025.4 0.0
13/10:00am 23.9 19.3 -14.0 7 13.3 WSW 7 11 4 6 1025.8 1025.5 0.0
13/09:30am 22.2 17.2 -13.6 8 12.4 WSW 9 11 5 6 1026.0 1025.7 0.0
13/09:00am 20.1 15.1 -13.7 9 11.3 WSW 9 11 5 6 1026.0 1025.7 0.0
13/08:30am 18.4 13.0 -13.7 10 10.6 WSW 11 13 6 7 1025.7 1025.4 0.0
13/08:00am 17.0 11.7 -12.6 12 9.8 WSW 11 13 6 7 1025.4 1025.1 0.0
13/07:30am 15.2 10.2 -13.0 13 9.1 WSW 9 11 5 6 1024.9 1024.6 0.0
13/07:00am 13.7 8.8 -12.4 15 8.3 WSW 9 11 5 6 1024.5 1024.2 0.0
13/06:30am 12.7 7.8 -12.4 16 7.9 WSW 9 11 5 6 1024.1 1023.8 0.0
13/06:00am 12.5 7.2 -12.6 16 7.8 WSW 11 13 6 7 1023.8 1023.5 0.0
13/05:30am 12.8 7.4 -13.2 15 8.0 SW 11 13 6 7 1023.6 1023.3 0.0
13/05:00am 15.3 10.3 -12.9 13 9.0 SW 9 11 5 6 1023.4 1023.1 0.0
13/04:30am 16.0 12.8 -11.4 14 9.2 CALM 0 0 0 0 1023.2 1022.8 0.0
13/04:00am 15.5 11.0 -11.8 14 9.0 SW 7 9 4 5 1023.3 1023.0 0.0
13/03:30am 15.1 10.2 -12.2 14 8.9 SW 9 9 5 5 1023.4 1023.1 0.0
13/03:00am 15.4 10.4 -12.8 13 9.1 SW 9 11 5 6 1023.5 1023.2 0.0
13/02:30am 16.3 11.3 -13.1 12 9.6 SW 9 13 5 7 1023.6 1023.3 0.0
13/02:00am 16.0 10.3 -13.3 12 9.4 SW 13 13 7 7 1023.7 1023.4 0.0
13/01:30am 17.3 11.9 -13.4 11 10.1 S 11 13 6 7 1024.0 1023.7 0.0
13/01:00am 18.4 13.5 -12.6 11 10.4 S 9 11 5 6 1024.3 1024.0 0.0
13/12:30am 17.9 11.4 -14.1 10 10.4 S 17 17 9 9 1024.5 1024.2 0.0
13/12:00am 18.9 13.5 -13.3 10 10.7 S 11 13 6 7 1024.5 1024.2 0.0
 
Date/Time
EST
Temp
°C
App
Temp
°C
Dew
Point
°C
Rel
Hum
%
Delta-T
°C
Wind Press
QNH
hPa
Press
MSL
hPa
Rain since
9am
mm
Dir  Spd
km/h
Gust
km/h
Spd
kts
Gust
kts
12/11:30pm 19.1 14.2 -12.0 11 10.7 SSE 9 13 5 7 1024.6 1024.3 0.0
12/11:00pm 19.3 14.3 -13.0 10 10.9 SSE 9 11 5 6 1024.7 1024.4 0.0
12/10:30pm 20.9 16.4 -11.8 10 11.6 SSE 7 7 4 4 1024.7 1024.4 0.0
12/10:00pm 20.0 14.8 -11.3 11 11.0 SSE 11 13 6 7 1024.7 1024.4 0.0
12/09:30pm 19.8 13.8 -11.5 11 11.0 SSE 15 17 8 9 1024.7 1024.4 0.0
12/09:00pm 21.0 15.3 -13.0 9 11.7 S 13 15 7 8 1024.8 1024.5 0.0
12/08:30pm 22.4 17.4 -13.4 8 12.5 SSW 9 9 5 5 1024.5 1024.2 0.0
12/08:00pm 22.8 17.4 -13.1 8 12.6 SSW 11 11 6 6 1024.4 1024.1 0.0
12/07:30pm 22.8 17.4 -13.1 8 12.7 SSW 11 13 6 7 1024.1 1023.8 0.0
12/07:00pm 23.5 18.2 -12.6 8 12.9 SSW 11 15 6 8 1023.8 1023.5 0.0
12/06:30pm 24.8 19.1 -13.3 7 13.7 SSW 13 15 7 8 1023.6 1023.3 0.0
12/06:00pm 26.3 20.2 -12.2 7 14.3 SSW 15 20 8 11 1023.5 1023.2 0.0

Other formats

Comma delimited format used in spreadsheet applications
http://www.bom.gov.au/fwo/IDQ60801/IDQ60801.95487.axf

JavaScript Object Notation format (JSON) in row-major order
http://www.bom.gov.au/fwo/IDQ60801/IDQ60801.95487.json

Data quality

Most of these data are generated automatically and are frequently updated. Quality checks on data are not normally performed. It is possible for incorrect values to appear. Refer to information at About Latest Weather Observations and please check the disclaimer before using these data.